Andover, New York
Current Conditions -  °F | °C
As of 5:56 PM on Tuesday 25 Nov 2014 (Local Time) from KELZ Reporting Station
Overcast Overcast  
Wind Chill: -2°   Ceiling: 4000
Heat Index:   Visibility: 10mi
Dew Point: -5°   Wind: 16mph
Humidity: 55%   Direction: 260°W
Pressure: 30.02"   Gusts: 23mph
Location:  42.16°N, 77.8°W
Report Text: KELZ 252256Z AUTO 26014G20KT 10SM OVC040 03/M05 A3002 RMK AO2 SLP183 T00331050
Loading
Personal Weather Stations






























Interactive Weather Map New forecast layout! Learn more

10-Day Weather Forecast

Advertisements
Track Severe Weather on mobile